Time;durP1;ratioP1;P1;durP2;ratioP2;P2;SDS_P1;SDS_P2;PMS_P1;PMS_P2;Temp;Humidity;BMP_temperature;BMP_pressure;BME280_temperature;BME280_humidity;BME280_pressure;Samples;Min_cycle;Max_cycle;Signal;HPM_P1;HPM_P2
2022/03/24 00:00:06;;;;;;;51.65;27.08;;;5.10;87.50;;;;;;5100300;28;20032;-66
2022/03/24 00:02:32;;;;;;;55.55;28.30;;;5.10;87.70;;;;;;5102419;28;20081;-67
2022/03/24 00:04:57;;;;;;;56.88;27.20;;;5.00;87.70;;;;;;5085398;28;20420;-66
2022/03/24 00:07:23;;;;;;;52.00;27.13;;;4.90;87.90;;;;;;5103408;28;20046;-66
2022/03/24 00:09:49;;;;;;;51.97;26.55;;;4.90;88.10;;;;;;5086760;28;20626;-66
2022/03/24 00:12:16;;;;;;;57.92;28.45;;;4.80;88.20;;;;;;5105672;28;20039;-66
2022/03/24 00:14:42;;;;;;;53.30;27.08;;;4.80;88.40;;;;;;5095503;28;20036;-66
2022/03/24 00:17:08;;;;;;;54.90;26.15;;;4.90;89.30;;;;;;5093842;28;20387;-66
2022/03/24 00:19:34;;;;;;;53.00;27.45;;;4.80;89.20;;;;;;5084922;27;20050;-66
2022/03/24 00:22:00;;;;;;;54.08;24.40;;;4.70;88.70;;;;;;5108437;27;20085;-66
2022/03/24 00:24:26;;;;;;;54.22;26.73;;;4.70;89.20;;;;;;5093614;27;20067;-65
2022/03/24 00:26:52;;;;;;;52.03;26.67;;;4.60;89.40;;;;;;5105010;27;20039;-66
2022/03/24 00:29:18;;;;;;;49.55;24.85;;;4.60;89.60;;;;;;5104951;27;20040;-66
2022/03/24 00:31:44;;;;;;;54.88;26.60;;;4.50;89.70;;;;;;5101324;27;20043;-66
2022/03/24 00:34:10;;;;;;;53.53;25.80;;;4.50;89.80;;;;;;5109158;27;20039;-68
2022/03/24 00:36:36;;;;;;;52.85;25.60;;;4.50;89.80;;;;;;5110016;27;20051;-66
2022/03/24 00:39:02;;;;;;;53.50;25.85;;;4.50;90.00;;;;;;5104903;27;20501;-66
2022/03/24 00:41:28;;;;;;;49.80;25.15;;;4.40;90.20;;;;;;5110856;27;20138;-67
2022/03/24 00:43:55;;;;;;;55.38;25.95;;;4.40;90.10;;;;;;5087121;27;20438;-66
2022/03/24 00:46:23;;;;;;;51.47;25.75;;;4.40;90.20;;;;;;5089332;27;20068;-66
2022/03/24 00:48:53;;;;;;;53.95;24.73;;;4.30;90.40;;;;;;5110242;27;20066;-66
2022/03/24 00:51:19;;;;;;;50.45;25.90;;;4.40;90.60;;;;;;5110164;27;20060;-66
2022/03/24 00:53:48;;;;;;;55.22;24.83;;;4.30;90.40;;;;;;5102303;27;20039;-65
2022/03/24 00:56:14;;;;;;;55.65;26.92;;;4.30;90.60;;;;;;5098888;27;20166;-66
2022/03/24 00:58:39;;;;;;;52.40;25.75;;;4.30;90.70;;;;;;5092762;27;20044;-67
2022/03/24 01:01:09;;;;;;;53.08;25.98;;;4.30;90.80;;;;;;5096099;27;20364;-66
2022/03/24 01:03:36;;;;;;;52.70;25.75;;;4.20;90.70;;;;;;5105983;27;20046;-66
2022/03/24 01:06:02;;;;;;;54.63;25.95;;;4.20;90.90;;;;;;5091839;27;20513;-67
2022/03/24 01:08:27;;;;;;;55.65;26.88;;;4.20;91.00;;;;;;5100424;27;20054;-67
2022/03/24 01:10:55;;;;;;;62.35;28.33;;;4.10;91.10;;;;;;5095193;27;20589;-66
2022/03/24 01:13:21;;;;;;;57.90;27.10;;;4.20;91.20;;;;;;5108691;27;20043;-66
2022/03/24 01:15:50;;;;;;;54.90;26.85;;;4.20;91.40;;;;;;5101282;28;20484;-65
2022/03/24 01:18:19;;;;;;;52.08;25.20;;;4.10;91.30;;;;;;5085635;27;20502;-66
2022/03/24 01:20:46;;;;;;;51.88;25.02;;;4.10;91.60;;;;;;5084206;27;20149;-66
2022/03/24 01:23:15;;;;;;;53.70;25.42;;;4.10;91.60;;;;;;5102146;27;20115;-66
2022/03/24 01:25:43;;;;;;;47.03;23.40;;;4.00;92.00;;;;;;5098620;28;20032;-65
2022/03/24 01:28:13;;;;;;;55.17;26.00;;;4.00;91.50;;;;;;5102682;27;20122;-66
2022/03/24 01:30:39;;;;;;;54.05;24.85;;;3.90;91.50;;;;;;5100124;27;20046;-66
2022/03/24 01:33:04;;;;;;;52.50;25.58;;;3.90;91.80;;;;;;5106939;27;20039;-66
2022/03/24 01:35:31;;;;;;;56.90;26.23;;;3.90;91.60;;;;;;5098033;27;20031;-66
2022/03/24 01:37:57;;;;;;;59.17;28.55;;;3.80;91.80;;;;;;5106824;27;20122;-65
2022/03/24 01:40:24;;;;;;;55.70;26.60;;;3.90;91.90;;;;;;5098783;27;20064;-66
2022/03/24 01:42:50;;;;;;;53.92;26.42;;;3.90;92.00;;;;;;5094330;27;20189;-65
2022/03/24 01:45:15;;;;;;;55.47;26.13;;;3.90;92.20;;;;;;5101027;27;20447;-66
2022/03/24 01:47:41;;;;;;;51.10;25.10;;;3.90;92.10;;;;;;5109193;27;20043;-66
2022/03/24 01:50:09;;;;;;;51.17;24.80;;;3.80;92.20;;;;;;5107015;27;20374;-66
2022/03/24 01:52:35;;;;;;;52.15;24.20;;;3.90;92.40;;;;;;5096691;27;20110;-65
2022/03/24 01:55:03;;;;;;;51.08;24.25;;;3.90;92.30;;;;;;5101354;27;20122;-66
2022/03/24 01:57:30;;;;;;;55.30;25.73;;;3.70;92.00;;;;;;5100158;28;20047;-66
2022/03/24 01:59:56;;;;;;;54.70;25.85;;;3.70;92.30;;;;;;5103857;27;20035;-66
2022/03/24 02:02:22;;;;;;;50.83;26.08;;;3.70;92.40;;;;;;5106831;27;20057;-65
2022/03/24 02:04:48;;;;;;;57.47;26.63;;;3.70;92.40;;;;;;5108565;27;20702;-66
2022/03/24 02:07:13;;;;;;;58.20;26.98;;;3.70;92.50;;;;;;5105612;27;20084;-66
2022/03/24 02:09:40;;;;;;;59.38;27.00;;;3.70;92.70;;;;;;5104630;27;20035;-66
2022/03/24 02:12:11;;;;;;;58.63;26.52;;;3.70;93.10;;;;;;5107428;28;20445;-66
2022/03/24 02:14:37;;;;;;;56.30;25.98;;;3.70;93.30;;;;;;5102214;27;20080;-66
2022/03/24 02:17:04;;;;;;;56.63;26.02;;;3.60;92.90;;;;;;5094309;27;20123;-67
2022/03/24 02:19:30;;;;;;;55.33;26.60;;;3.50;93.00;;;;;;5109133;27;20130;-65
2022/03/24 02:22:01;;;;;;;51.38;24.63;;;3.60;93.20;;;;;;5095091;27;20092;-67
2022/03/24 02:24:26;;;;;;;;;;;3.50;93.50;;;;;;5102681;27;20044;-66
2022/03/24 02:26:53;;;;;;;51.45;25.17;;;3.40;95.30;;;;;;5099548;27;19915;-65
2022/03/24 02:29:25;;;;;;;56.88;27.42;;;3.40;93.60;;;;;;5098099;27;20049;-66
2022/03/24 02:31:51;;;;;;;59.13;26.42;;;3.40;93.70;;;;;;5105738;27;20039;-66
2022/03/24 02:37:07;;;;;;;58.55;27.75;;;3.40;93.90;;;;;;5104102;27;20054;-66
2022/03/24 02:39:34;;;;;;;58.08;27.38;;;3.30;93.70;;;;;;5080535;27;20050;-66
2022/03/24 02:42:00;;;;;;;61.35;29.55;;;3.30;93.80;;;;;;5102847;27;20035;-65
2022/03/24 02:44:30;;;;;;;65.30;29.77;;;3.30;94.00;;;;;;5095828;28;20043;-65
2022/03/24 02:46:57;;;;;;;60.00;28.17;;;3.30;94.20;;;;;;5098330;27;20047;-66
2022/03/24 02:49:25;;;;;;;66.28;28.40;;;3.30;94.20;;;;;;5087822;27;20300;-66
2022/03/24 02:51:52;;;;;;;61.95;28.73;;;3.30;95.10;;;;;;5110088;27;20042;-66
2022/03/24 02:54:19;;;;;;;62.72;28.45;;;3.30;94.40;;;;;;5099475;28;20104;-65
2022/03/24 02:56:46;;;;;;;61.15;27.58;;;3.20;94.70;;;;;;5125073;27;20421;-65
2022/03/24 02:59:12;;;;;;;59.00;27.98;;;3.20;94.50;;;;;;5102153;28;20047;-67
2022/03/24 03:01:41;;;;;;;67.38;31.35;;;3.20;94.60;;;;;;5100531;28;20036;-67
2022/03/24 03:04:08;;;;;;;65.80;30.33;;;3.30;95.00;;;;;;5096364;28;20444;-65
2022/03/24 03:06:33;;;;;;;66.20;31.17;;;3.30;94.80;;;;;;5106132;27;20077;-65
2022/03/24 03:09:01;;;;;;;66.93;29.70;;;3.30;95.30;;;;;;5096059;28;20066;-65
2022/03/24 03:11:30;;;;;;;70.03;32.25;;;3.20;94.70;;;;;;5102811;28;20097;-66
2022/03/24 03:13:56;;;;;;;63.25;30.10;;;3.30;95.40;;;;;;5097545;28;20070;-68
2022/03/24 03:16:22;;;;;;;72.80;31.20;;;3.20;94.80;;;;;;5119222;28;20477;-65
2022/03/24 03:18:48;;;;;;;67.18;31.73;;;3.20;94.90;;;;;;5082858;28;20114;-65
2022/03/24 03:21:14;;;;;;;71.32;32.97;;;3.20;94.90;;;;;;5104779;28;20032;-65
2022/03/24 03:23:41;;;;;;;66.20;29.92;;;3.10;94.80;;;;;;5094065;28;20089;-65
2022/03/24 03:26:07;;;;;;;69.18;30.13;;;3.00;94.80;;;;;;5092196;28;20036;-65
2022/03/24 03:28:33;;;;;;;63.08;30.70;;;3.00;94.70;;;;;;5098449;28;20063;-67
2022/03/24 03:30:59;;;;;;;71.55;32.60;;;3.00;95.00;;;;;;5090854;28;20040;-67
2022/03/24 03:33:25;;;;;;;70.70;33.50;;;3.00;95.30;;;;;;5098376;28;20048;-65
2022/03/24 03:35:52;;;;;;;66.57;31.70;;;3.00;95.50;;;;;;5096546;28;20055;-65
2022/03/24 03:38:18;;;;;;;74.60;33.45;;;3.00;95.60;;;;;;5069656;28;20040;-65
2022/03/24 03:40:45;;;;;;;65.05;29.20;;;3.00;95.60;;;;;;5097536;28;20071;-65
2022/03/24 03:43:11;;;;;;;64.10;29.77;;;3.10;95.60;;;;;;5096441;28;20054;-65
2022/03/24 03:45:37;;;;;;;67.07;29.52;;;3.10;95.60;;;;;;5089153;28;20032;-65
2022/03/24 03:48:05;;;;;;;61.25;27.67;;;3.10;95.50;;;;;;5088302;28;20085;-65
2022/03/24 03:50:31;;;;;;;58.33;28.05;;;3.00;95.40;;;;;;5106090;28;21883;-65
2022/03/24 03:52:56;;;;;;;64.30;30.17;;;3.00;95.30;;;;;;5093956;28;20055;-65
2022/03/24 03:55:22;;;;;;;62.25;27.67;;;2.90;95.80;;;;;;5094453;28;20062;-67
2022/03/24 03:57:48;;;;;;;59.25;28.40;;;2.90;95.80;;;;;;5083483;28;20044;-65
2022/03/24 04:03:03;;;;;;;67.05;31.20;;;2.80;95.90;;;;;;5093703;28;20040;-65
2022/03/24 04:05:29;;;;;;;71.18;32.88;;;2.90;96.40;;;;;;5095123;28;20047;-66
2022/03/24 04:07:55;;;;;;;70.35;32.42;;;2.90;96.20;;;;;;5102049;28;20969;-65
2022/03/24 04:10:21;;;;;;;72.05;31.92;;;2.80;96.30;;;;;;5101203;28;20084;-65
2022/03/24 04:12:47;;;;;;;77.18;33.75;;;2.80;96.60;;;;;;5123616;27;20088;-65
2022/03/24 04:15:13;;;;;;;75.55;34.05;;;2.70;96.20;;;;;;5102092;28;20039;-65
2022/03/24 04:17:38;;;;;;;81.38;36.67;;;2.70;96.30;;;;;;5098345;28;20047;-65
2022/03/24 04:20:05;;;;;;;73.78;34.47;;;2.70;96.30;;;;;;5098172;28;20073;-65
2022/03/24 04:22:31;;;;;;;81.40;36.13;;;2.70;96.60;;;;;;5105237;28;20039;-65
2022/03/24 04:24:56;;;;;;;75.72;33.75;;;2.70;96.60;;;;;;5100456;28;20028;-66
2022/03/24 04:27:22;;;;;;;74.03;34.90;;;2.70;96.60;;;;;;5099077;28;20073;-66
2022/03/24 04:29:47;;;;;;;69.45;32.95;;;2.60;97.00;;;;;;5104910;28;20377;-67
2022/03/24 04:32:13;;;;;;;75.75;33.95;;;2.60;96.50;;;;;;5119119;27;20507;-65
2022/03/24 04:34:39;;;;;;;72.15;34.40;;;2.60;97.10;;;;;;5084527;28;20028;-66
2022/03/24 04:37:05;;;;;;;74.20;33.65;;;2.60;97.00;;;;;;5104550;28;20563;-66
2022/03/24 04:39:31;;;;;;;72.13;33.80;;;2.60;97.10;;;;;;5100038;28;20050;-66
2022/03/24 04:41:56;;;;;;;72.50;33.78;;;2.60;97.00;;;;;;5103185;28;20512;-65
2022/03/24 04:44:23;;;;;;;72.85;34.10;;;2.60;97.00;;;;;;5110325;28;20089;-66
2022/03/24 04:46:52;;;;;;;80.20;36.03;;;2.60;96.90;;;;;;5094221;28;20531;-65
2022/03/24 04:49:18;;;;;;;76.13;35.33;;;2.50;97.40;;;;;;5094823;28;20052;-65
2022/03/24 04:51:43;;;;;;;79.32;34.40;;;2.50;97.30;;;;;;5090895;28;20039;-65
2022/03/24 04:54:09;;;;;;;77.72;34.50;;;2.50;98.10;;;;;;5090417;28;20388;-66
2022/03/24 04:56:35;;;;;;;82.80;36.80;;;2.50;97.40;;;;;;5092042;28;20996;-66
2022/03/24 04:59:00;;;;;;;76.95;35.65;;;2.50;97.50;;;;;;5095867;28;20035;-65
2022/03/24 05:01:26;;;;;;;80.15;35.42;;;2.40;97.40;;;;;;5079222;28;20043;-65
2022/03/24 05:03:52;;;;;;;73.68;34.47;;;2.40;97.50;;;;;;5117942;27;20039;-65
2022/03/24 05:06:17;;;;;;;77.70;34.15;;;2.40;97.50;;;;;;5105966;28;20036;-65
2022/03/24 05:08:43;;;;;;;80.47;36.20;;;2.30;97.60;;;;;;5100535;28;20130;-66
2022/03/24 05:11:09;;;;;;;77.82;34.88;;;2.40;97.90;;;;;;5093734;28;20040;-65
2022/03/24 05:13:35;;;;;;;77.50;35.38;;;2.30;97.60;;;;;;5098587;28;20503;-67
2022/03/24 05:16:00;;;;;;;79.60;35.92;;;2.40;98.00;;;;;;5086896;28;20049;-65
2022/03/24 05:18:26;;;;;;;78.28;35.70;;;2.40;98.10;;;;;;5090242;28;20078;-67
2022/03/24 05:20:52;;;;;;;75.72;34.22;;;2.40;98.00;;;;;;5087169;28;20054;-66
2022/03/24 05:23:18;;;;;;;77.55;35.03;;;2.30;98.10;;;;;;5083923;28;20039;-65
2022/03/24 05:25:49;;;;;;;71.97;33.80;;;2.30;98.10;;;;;;5100607;28;20062;-66
2022/03/24 05:28:16;;;;;;;77.18;34.63;;;2.30;98.30;;;;;;5089882;28;20496;-65
2022/03/24 05:30:42;;;;;;;78.93;36.30;;;2.30;98.40;;;;;;5089214;28;20416;-66
2022/03/24 05:33:08;;;;;;;80.10;36.97;;;2.30;98.40;;;;;;5101372;28;20046;-66
2022/03/24 05:35:35;;;;;;;80.30;35.22;;;2.30;98.20;;;;;;5103744;28;20037;-66
2022/03/24 05:38:04;;;;;;;77.22;35.45;;;2.30;98.30;;;;;;5092204;28;20081;-66
2022/03/24 05:40:31;;;;;;;79.25;35.25;;;2.30;98.50;;;;;;5093539;28;20431;-66
2022/03/24 05:42:56;;;;;;;70.97;33.88;;;2.20;98.50;;;;;;5101194;28;20460;-65
2022/03/24 05:45:22;;;;;;;75.03;33.85;;;2.20;98.30;;;;;;5095709;28;20189;-65
2022/03/24 05:47:47;;;;;;;78.68;35.60;;;2.30;98.70;;;;;;5079201;28;20130;-66
2022/03/24 05:50:13;;;;;;;71.45;33.90;;;2.30;98.60;;;;;;5083048;28;20036;-66
2022/03/24 05:52:40;;;;;;;78.93;36.15;;;2.30;98.70;;;;;;5103275;28;20089;-66
2022/03/24 05:55:06;;;;;;;81.00;36.83;;;2.40;99.60;;;;;;5106105;28;20130;-65
2022/03/24 05:57:32;;;;;;;78.88;35.35;;;2.40;99.50;;;;;;5080089;28;20501;-65
2022/03/24 05:59:58;;;;;;;79.53;37.65;;;2.40;99.30;;;;;;5103363;28;20032;-66
2022/03/24 06:02:25;;;;;;;77.15;36.40;;;2.50;99.20;;;;;;5096373;28;20051;-66
2022/03/24 06:04:52;;;;;;;84.20;37.47;;;2.40;98.80;;;;;;5105028;28;20084;-65
2022/03/24 06:07:18;;;;;;;85.00;37.70;;;2.60;99.50;;;;;;5098031;28;20036;-65
2022/03/24 06:09:45;;;;;;;82.00;37.75;;;2.60;99.90;;;;;;5096710;28;20510;-66
2022/03/24 06:12:12;;;;;;;87.10;39.05;;;2.70;99.70;;;;;;5093621;28;20046;-66
2022/03/24 06:14:39;;;;;;;76.95;37.05;;;2.70;99.20;;;;;;5099161;28;20435;-65
2022/03/24 06:17:05;;;;;;;82.60;37.15;;;2.80;99.30;;;;;;5098344;28;20060;-65
2022/03/24 06:19:32;;;;;;;84.85;38.08;;;2.80;99.40;;;;;;5055989;28;20054;-65
2022/03/24 06:21:57;;;;;;;81.30;37.55;;;3.00;99.70;;;;;;5056491;28;20147;-65
2022/03/24 06:24:23;;;;;;;85.75;40.22;;;3.20;99.80;;;;;;5092472;28;20118;-65
2022/03/24 06:26:49;;;;;;;86.75;38.65;;;3.30;99.60;;;;;;5079598;28;20040;-67
2022/03/24 06:29:15;;;;;;;81.82;38.80;;;3.40;99.70;;;;;;5085195;28;20328;-66
2022/03/24 06:31:41;;;;;;;79.10;39.83;;;3.60;99.70;;;;;;5073941;28;20058;-66
2022/03/24 06:34:07;;;;;;;76.65;38.50;;;3.90;99.70;;;;;;5098769;28;20041;-67
2022/03/24 06:36:33;;;;;;;81.30;39.67;;;4.10;99.90;;;;;;5072780;28;20044;-66
2022/03/24 06:38:58;;;;;;;81.93;39.75;;;4.20;99.90;;;;;;5097613;28;20089;-66
2022/03/24 06:41:25;;;;;;;78.50;39.58;;;4.40;99.90;;;;;;5080828;28;20391;-66
2022/03/24 06:43:50;;;;;;;80.22;40.67;;;4.60;99.90;;;;;;5078563;28;20040;-68
2022/03/24 06:46:16;;;;;;;78.43;40.42;;;4.80;99.90;;;;;;5079265;28;20464;-67
2022/03/24 06:48:42;;;;;;;83.97;42.47;;;5.00;99.90;;;;;;5063340;28;20040;-67
2022/03/24 06:51:07;;;;;;;76.85;40.35;;;5.10;99.90;;;;;;5087579;28;20075;-67
2022/03/24 06:53:33;;;;;;;84.72;44.67;;;5.30;99.90;;;;;;5074495;28;20101;-67
2022/03/24 06:55:59;;;;;;;83.18;44.38;;;5.60;99.90;;;;;;5077157;28;20032;-67
2022/03/24 06:58:25;;;;;;;82.07;43.92;;;5.80;99.90;;;;;;5086302;28;20048;-67
2022/03/24 07:00:51;;;;;;;84.47;43.83;;;6.00;99.90;;;;;;5081505;28;20036;-66
2022/03/24 07:03:17;;;;;;;82.60;45.42;;;6.30;99.90;;;;;;5066661;28;20051;-67
2022/03/24 07:05:42;;;;;;;82.43;44.97;;;6.50;99.90;;;;;;5080657;28;20051;-67
2022/03/24 07:08:11;;;;;;;78.95;44.63;;;6.80;99.90;;;;;;5099445;28;20077;-67
2022/03/24 07:10:36;;;;;;;77.63;44.45;;;7.10;99.80;;;;;;5066463;28;20033;-67
2022/03/24 07:13:02;;;;;;;83.07;46.53;;;7.40;99.30;;;;;;5081874;28;20396;-67
2022/03/24 07:15:28;;;;;;;81.57;45.20;;;7.70;98.50;;;;;;5087812;28;20211;-67
2022/03/24 07:17:54;;;;;;;82.78;46.88;;;8.00;98.10;;;;;;5083871;28;20059;-67
2022/03/24 07:20:20;;;;;;;76.30;45.45;;;8.30;97.40;;;;;;5097148;28;20119;-66
2022/03/24 07:22:46;;;;;;;87.15;47.65;;;8.50;96.60;;;;;;5094973;28;20081;-67
2022/03/24 07:25:12;;;;;;;82.60;49.10;;;8.80;95.60;;;;;;5084233;28;20054;-66
2022/03/24 07:27:38;;;;;;;79.90;48.75;;;9.00;95.20;;;;;;5111916;27;20036;-68
2022/03/24 07:30:04;;;;;;;80.15;47.40;;;9.30;94.40;;;;;;5108203;27;20072;-67
2022/03/24 07:32:30;;;;;;;78.72;47.65;;;9.60;93.40;;;;;;5105439;28;20047;-67
2022/03/24 07:34:56;;;;;;;82.00;48.08;;;9.80;92.50;;;;;;5103714;28;20077;-67
2022/03/24 07:37:22;;;;;;;77.72;47.95;;;9.90;91.40;;;;;;5101930;28;20054;-67
2022/03/24 07:39:48;;;;;;;71.05;46.60;;;9.90;90.50;;;;;;5109402;28;20039;-67
2022/03/24 07:42:15;;;;;;;76.35;47.30;;;10.30;89.10;;;;;;5108204;28;20036;-67
2022/03/24 07:44:41;;;;;;;73.38;45.70;;;10.30;87.70;;;;;;5111169;28;20044;-68
2022/03/24 07:47:07;;;;;;;68.18;44.42;;;10.40;85.40;;;;;;5107622;28;20036;-67
2022/03/24 07:49:32;;;;;;;72.13;43.22;;;10.70;85.40;;;;;;5080560;28;20047;-67
2022/03/24 07:51:58;;;;;;;67.63;41.97;;;11.20;84.50;;;;;;5090361;28;20042;-67
2022/03/24 07:54:40;;;;;;;65.10;43.38;;;11.50;83.30;;;;;;5104821;28;20063;-67
2022/03/24 07:57:06;;;;;;;66.60;42.42;;;11.80;78.60;;;;;;5101603;28;20039;-68
2022/03/24 07:59:33;;;;;;;62.03;41.47;;;12.10;80.90;;;;;;5093932;28;20092;-67
2022/03/24 08:01:58;;;;;;;68.05;41.58;;;12.10;79.50;;;;;;5091374;28;20091;-68
2022/03/24 08:04:24;;;;;;;62.30;39.78;;;12.00;78.20;;;;;;5105263;28;20106;-67
2022/03/24 08:06:49;;;;;;;62.40;40.20;;;11.90;77.60;;;;;;5079971;28;20055;-67
2022/03/24 08:09:15;;;;;;;63.22;40.00;;;11.70;76.80;;;;;;5092590;28;20120;-67
2022/03/24 08:11:41;;;;;;;62.38;39.33;;;11.50;75.60;;;;;;5110038;28;20054;-67
2022/03/24 08:14:06;;;;;;;65.78;40.65;;;11.40;75.00;;;;;;5095928;28;20094;-67
2022/03/24 08:16:32;;;;;;;69.95;40.00;;;11.30;74.50;;;;;;5097060;28;20161;-67
2022/03/24 08:18:57;;;;;;;63.28;38.67;;;11.10;74.70;;;;;;5109126;28;20075;-67
2022/03/24 08:21:23;;;;;;;60.22;36.13;;;11.20;74.30;;;;;;5093564;28;20127;-67
2022/03/24 08:23:49;;;;;;;61.88;37.00;;;11.40;72.80;;;;;;5088224;28;20390;-67
2022/03/24 08:26:15;;;;;;;56.47;35.83;;;11.30;72.30;;;;;;5081762;28;20035;-68
2022/03/24 08:28:40;;;;;;;54.80;33.55;;;11.40;71.60;;;;;;5108560;28;20112;-68
2022/03/24 08:31:06;;;;;;;60.13;36.15;;;11.50;71.70;;;;;;5106410;28;20042;-68
2022/03/24 08:33:31;;;;;;;54.40;32.15;;;11.50;70.90;;;;;;5107241;28;20048;-68
2022/03/24 08:35:57;;;;;;;58.42;33.30;;;11.50;69.90;;;;;;5104256;28;20114;-68
2022/03/24 08:38:23;;;;;;;53.58;31.15;;;11.70;68.70;;;;;;5121354;27;20487;-68
2022/03/24 08:40:48;;;;;;;55.15;31.58;;;11.80;68.10;;;;;;5107331;28;20035;-68
2022/03/24 08:43:14;;;;;;;56.42;31.42;;;11.90;67.20;;;;;;5103420;28;20420;-68
2022/03/24 08:45:40;;;;;;;55.50;32.55;;;12.00;66.70;;;;;;5104293;28;20070;-68
2022/03/24 08:48:06;;;;;;;56.40;31.38;;;12.10;66.20;;;;;;5100413;28;20078;-68
2022/03/24 08:50:34;;;;;;;59.83;33.38;;;12.10;66.10;;;;;;5104848;28;20035;-68
2022/03/24 08:53:02;;;;;;;56.95;33.45;;;12.30;66.10;;;;;;5101219;28;20070;-68
2022/03/24 08:55:28;;;;;;;61.17;33.65;;;12.40;66.40;;;;;;5107283;28;20035;-68
2022/03/24 08:57:53;;;;;;;63.05;34.72;;;12.50;66.60;;;;;;5108769;28;20487;-68
2022/03/24 09:00:19;;;;;;;60.92;35.13;;;12.60;66.40;;;;;;5088170;28;20047;-68
2022/03/24 09:02:50;;;;;;;61.08;35.92;;;13.00;66.70;;;;;;5098845;28;20100;-72
2022/03/24 09:05:18;;;;;;;63.15;36.08;;;13.30;66.10;;;;;;5086153;28;20101;-68
2022/03/24 09:07:45;;;;;;;56.90;34.05;;;13.50;65.70;;;;;;5122804;27;20034;-68
2022/03/24 09:10:12;;;;;;;57.00;32.80;;;14.00;64.70;;;;;;5088656;28;20126;-68
2022/03/24 09:12:40;;;;;;;53.28;30.58;;;14.70;63.90;;;;;;5101861;28;20035;-67
2022/03/24 09:15:09;;;;;;;52.83;29.98;;;15.00;62.70;;;;;;5101484;28;20118;-68
2022/03/24 09:17:37;;;;;;;53.63;30.25;;;15.00;61.70;;;;;;5092389;28;20042;-68
2022/03/24 09:20:03;;;;;;;51.58;28.98;;;15.00;61.40;;;;;;5100307;27;20054;-68
2022/03/24 09:22:29;;;;;;;50.78;29.23;;;14.80;61.10;;;;;;5094698;27;20062;-68
2022/03/24 09:24:56;;;;;;;46.47;28.92;;;14.90;61.10;;;;;;5105837;27;20110;-67
2022/03/24 09:27:21;;;;;;;50.40;29.35;;;14.80;61.10;;;;;;5088089;28;20216;-68
2022/03/24 09:29:49;;;;;;;45.30;28.20;;;14.80;61.40;;;;;;5082761;28;20127;-67
2022/03/24 09:32:16;;;;;;;49.22;28.95;;;14.90;61.20;;;;;;5126702;27;20130;-67
2022/03/24 09:34:42;;;;;;;53.55;29.77;;;14.90;60.90;;;;;;5113196;27;20062;-68
2022/03/24 09:37:08;;;;;;;52.20;29.83;;;15.10;60.30;;;;;;5088226;27;20610;-68
2022/03/24 09:39:34;;;;;;;49.45;28.48;;;15.00;59.60;;;;;;5098458;28;20020;-68
2022/03/24 09:42:00;;;;;;;49.72;28.23;;;15.00;59.80;;;;;;5104952;27;20367;-67
2022/03/24 09:44:26;;;;;;;51.08;29.52;;;15.20;59.60;;;;;;5110254;27;20035;-67
2022/03/24 09:46:52;;;;;;;51.20;28.92;;;15.30;59.40;;;;;;5107926;27;20043;-67
2022/03/24 09:49:17;;;;;;;50.85;29.73;;;15.40;59.20;;;;;;5091230;27;20031;-69
2022/03/24 09:51:43;;;;;;;48.75;29.95;;;15.40;58.90;;;;;;5087667;27;20035;-68
2022/03/24 09:54:11;;;;;;;54.72;31.13;;;15.30;59.20;;;;;;5104558;27;20118;-68
2022/03/24 09:56:38;;;;;;;49.42;28.38;;;15.30;59.00;;;;;;5109505;27;20031;-69
2022/03/24 09:59:04;;;;;;;52.08;29.23;;;15.30;58.90;;;;;;5083744;28;20471;-68
2022/03/24 10:01:30;;;;;;;54.97;31.55;;;15.40;58.90;;;;;;5100812;27;20386;-68
2022/03/24 10:04:10;;;;;;;49.30;29.80;;;15.50;58.60;;;;;;5107028;27;20059;-68
2022/03/24 10:06:39;;;;;;;50.75;28.42;;;15.50;58.70;;;;;;5108916;27;20031;-69
2022/03/24 10:09:05;;;;;;;50.17;29.25;;;15.50;58.20;;;;;;5102811;27;20510;-68
2022/03/24 10:11:31;;;;;;;45.92;27.65;;;15.80;57.90;;;;;;5091635;27;20091;-68
2022/03/24 10:13:59;;;;;;;46.35;27.92;;;15.80;57.80;;;;;;5109857;27;20370;-69
2022/03/24 10:16:34;;;;;;;47.80;28.65;;;16.00;57.20;;;;;;5096421;27;20040;-70
2022/03/24 10:19:08;;;;;;;53.72;28.73;;;15.90;55.00;;;;;;5108864;27;20099;-69
2022/03/24 10:21:37;;;;;;;48.63;28.33;;;16.10;55.60;;;;;;5106229;27;20071;-69
2022/03/24 10:24:09;;;;;;;52.03;29.63;;;16.10;55.60;;;;;;5108349;27;20039;-69
2022/03/24 10:26:59;;;;;;;47.17;27.83;;;16.00;54.60;;;;;;5106561;27;20067;-68
2022/03/24 10:29:25;;;;;;;49.28;28.33;;;16.30;54.70;;;;;;5103547;27;20039;-69
2022/03/24 10:31:53;;;;;;;46.88;27.73;;;16.30;54.80;;;;;;5112183;27;20085;-68
2022/03/24 10:34:35;;;;;;;52.78;27.25;;;16.40;54.40;;;;;;5084671;27;20042;-69
2022/03/24 10:37:06;;;;;;;48.35;28.92;;;16.70;53.20;;;;;;5107655;27;20520;-68
2022/03/24 10:39:33;;;;;;;46.90;26.05;;;16.80;53.00;;;;;;5082297;27;20491;-68
2022/03/24 10:42:16;;;;;;;50.47;27.88;;;16.90;53.20;;;;;;5109766;27;20031;-69
2022/03/24 10:45:02;;;;;;;48.60;28.40;;;16.80;51.60;;;;;;5107910;27;20096;-70
2022/03/24 10:47:50;;;;;;;49.17;26.92;;;16.70;50.40;;;;;;5097297;28;20032;-70
2022/03/24 10:50:40;;;;;;;46.38;27.90;;;16.80;50.60;;;;;;5109943;27;20092;-69
2022/03/24 10:53:12;;;;;;;46.90;26.70;;;16.80;51.30;;;;;;5103124;27;20035;-69
2022/03/24 10:55:44;;;;;;;49.10;26.35;;;16.80;51.60;;;;;;5098256;27;20028;-68
2022/03/24 10:58:35;;;;;;;46.83;27.13;;;17.10;51.10;;;;;;5095926;28;20046;-69
2022/03/24 11:01:04;;;;;;;47.72;26.88;;;17.10;49.20;;;;;;5109815;27;20407;-69
2022/03/24 11:03:31;;;;;;;48.65;27.30;;;17.00;49.40;;;;;;5101322;28;20124;-69
2022/03/24 11:06:15;;;;;;;48.33;25.85;;;16.90;49.40;;;;;;5107369;27;20035;-69
2022/03/24 11:08:51;;;;;;;46.33;26.00;;;17.00;47.70;;;;;;5105322;28;20130;-68
2022/03/24 11:11:17;;;;;;;42.97;24.08;;;17.00;47.80;;;;;;5092437;27;20032;-68
2022/03/24 11:13:52;;;;;;;43.65;23.92;;;16.90;47.00;;;;;;5111093;28;20095;-69
2022/03/24 11:16:23;;;;;;;42.67;24.42;;;17.00;47.00;;;;;;5096793;28;20052;-69
2022/03/24 11:18:50;;;;;;;42.05;24.05;;;17.00;46.60;;;;;;5089032;28;20047;-70
2022/03/24 11:21:39;;;;;;;47.05;24.27;;;17.10;46.10;;;;;;5082136;28;20122;-69
2022/03/24 11:24:05;;;;;;;40.63;22.15;;;17.20;45.50;;;;;;5094506;28;20061;-68
2022/03/24 11:26:31;;;;;;;42.10;22.08;;;17.30;46.50;;;;;;5106693;28;20391;-69
2022/03/24 11:28:58;;;;;;;38.78;21.40;;;17.50;45.90;;;;;;5100417;28;20122;-69
2022/03/24 11:31:28;;;;;;;40.03;21.98;;;17.80;45.20;;;;;;5103802;28;20039;-68
2022/03/24 11:33:54;;;;;;;42.28;22.23;;;17.80;45.30;;;;;;5113650;28;20114;-69
2022/03/24 11:36:22;;;;;;;36.58;21.10;;;18.00;45.10;;;;;;5102508;28;20090;-69
2022/03/24 11:38:53;;;;;;;37.22;22.13;;;17.90;44.30;;;;;;5092292;28;20043;-69
2022/03/24 11:41:33;;;;;;;35.63;20.08;;;17.80;43.80;;;;;;5104774;28;20039;-70
2022/03/24 11:44:06;;;;;;;41.60;21.63;;;17.80;40.80;;;;;;5089284;28;20035;-69
2022/03/24 11:46:46;;;;;;;31.17;18.50;;;17.80;42.50;;;;;;5090354;28;20032;-68
2022/03/24 11:49:16;;;;;;;38.40;21.48;;;17.70;41.40;;;;;;5085553;28;20092;-69
2022/03/24 11:51:43;;;;;;;38.28;20.48;;;17.70;42.40;;;;;;5104356;28;20406;-70
2022/03/24 11:54:09;;;;;;;36.38;20.73;;;17.80;43.70;;;;;;5082743;28;20035;-69
2022/03/24 11:56:35;;;;;;;37.90;20.08;;;18.10;43.70;;;;;;5101793;28;20055;-69
2022/03/24 11:59:00;;;;;;;34.90;19.13;;;18.10;43.40;;;;;;5101788;28;20387;-70
2022/03/24 12:01:29;;;;;;;28.45;15.85;;;18.20;42.70;;;;;;5092478;28;20096;-70
2022/03/24 12:04:10;;;;;;;32.72;17.60;;;18.00;41.30;;;;;;5103279;28;20035;-69
2022/03/24 12:06:45;;;;;;;32.22;17.65;;;17.90;39.10;;;;;;5098395;28;20036;-69
2022/03/24 12:09:12;;;;;;;30.67;17.33;;;17.90;40.10;;;;;;5091388;28;20138;-69
2022/03/24 12:11:53;;;;;;;31.13;16.95;;;18.10;40.20;;;;;;5091037;27;20031;-69
2022/03/24 12:14:24;;;;;;;37.28;17.67;;;18.20;41.10;;;;;;5109027;27;20154;-69
2022/03/24 12:16:52;;;;;;;33.95;16.17;;;18.10;39.20;;;;;;5105031;27;20043;-70
2022/03/24 12:19:37;;;;;;;32.95;18.45;;;18.10;38.90;;;;;;5109073;27;20124;-69
2022/03/24 12:22:31;;;;;;;33.47;17.60;;;18.10;39.80;;;;;;5076855;27;20165;-69
2022/03/24 12:24:59;;;;;;;34.20;18.85;;;18.30;40.00;;;;;;5094987;27;20047;-66
2022/03/24 12:27:30;;;;;;;30.95;17.38;;;18.40;41.20;;;;;;5093703;27;20031;-68
2022/03/24 12:30:18;;;;;;;34.15;17.92;;;18.50;40.50;;;;;;5108605;27;20039;-69
2022/03/24 12:33:04;;;;;;;31.63;17.38;;;18.50;40.00;;;;;;5101405;27;21349;-70
2022/03/24 12:35:53;;;;;;;30.70;18.55;;;18.60;40.40;;;;;;5106287;27;20035;-69
2022/03/24 12:38:34;;;;;;;33.45;17.77;;;18.70;39.20;;;;;;5104410;27;20042;-70
2022/03/24 12:41:21;;;;;;;31.80;18.05;;;18.90;40.30;;;;;;5099427;27;20032;-70